sensor_id;sensor_type;location;lat;lon;timestamp;pressure;altitude;pressure_sealevel;temperature;humidity
71716;BME280;59568;52.128;5.434;2023-08-20T00:00:31;102155.44;;;17.93;89.38
71716;BME280;59568;52.128;5.434;2023-08-20T00:03:10;102154.97;;;17.91;89.13
71716;BME280;59568;52.128;5.434;2023-08-20T00:05:38;102152.44;;;17.86;89.36
71716;BME280;59568;52.128;5.434;2023-08-20T00:08:05;102158.34;;;17.83;89.28
71716;BME280;59568;52.128;5.434;2023-08-20T00:10:31;102157.66;;;17.77;89.88
71716;BME280;59568;52.128;5.434;2023-08-20T00:12:58;102164.34;;;17.75;89.57
71716;BME280;59568;52.128;5.434;2023-08-20T00:15:25;102161.78;;;17.70;89.38
71716;BME280;59568;52.128;5.434;2023-08-20T00:17:55;102166.91;;;17.66;89.56
71716;BME280;59568;52.128;5.434;2023-08-20T00:20:22;102174.66;;;17.63;89.67
71716;BME280;59568;52.128;5.434;2023-08-20T00:22:49;102174.19;;;17.61;89.66
71716;BME280;59568;52.128;5.434;2023-08-20T00:25:17;102173.19;;;17.56;89.39
71716;BME280;59568;52.128;5.434;2023-08-20T00:27:44;102173.03;;;17.53;89.89
71716;BME280;59568;52.128;5.434;2023-08-20T00:30:11;102167.56;;;17.49;89.52
71716;BME280;59568;52.128;5.434;2023-08-20T00:32:38;102165.22;;;17.48;89.64
71716;BME280;59568;52.128;5.434;2023-08-20T00:35:05;102166.59;;;17.45;89.59
71716;BME280;59568;52.128;5.434;2023-08-20T00:37:33;102172.78;;;17.41;89.58
71716;BME280;59568;52.128;5.434;2023-08-20T00:40:01;102183.66;;;17.39;90.03
71716;BME280;59568;52.128;5.434;2023-08-20T00:42:30;102183.66;;;17.39;90.07
71716;BME280;59568;52.128;5.434;2023-08-20T00:44:57;102183.66;;;17.39;89.93
71716;BME280;59568;52.128;5.434;2023-08-20T00:47:24;102188.94;;;17.39;90.27
71716;BME280;59568;52.128;5.434;2023-08-20T00:49:50;102193.13;;;17.40;90.45
71716;BME280;59568;52.128;5.434;2023-08-20T00:52:17;102200.47;;;17.43;91.26
71716;BME280;59568;52.128;5.434;2023-08-20T00:54:45;102207.31;;;17.44;91.24
71716;BME280;59568;52.128;5.434;2023-08-20T00:57:14;102207.31;;;17.44;91.57
71716;BME280;59568;52.128;5.434;2023-08-20T00:59:43;102205.75;;;17.43;91.72
71716;BME280;59568;52.128;5.434;2023-08-20T01:02:10;102214.94;;;17.46;92.27
71716;BME280;59568;52.128;5.434;2023-08-20T01:04:37;102213.06;;;17.46;92.56
71716;BME280;59568;52.128;5.434;2023-08-20T01:12:10;102209.94;;;17.44;91.32
71716;BME280;59568;52.128;5.434;2023-08-20T01:14:36;102210.28;;;17.43;91.11
71716;BME280;59568;52.128;5.434;2023-08-20T01:17:03;102215.56;;;17.43;91.89
71716;BME280;59568;52.128;5.434;2023-08-20T01:19:29;102217.53;;;17.37;91.71
71716;BME280;59568;52.128;5.434;2023-08-20T01:22:11;102218.38;;;17.32;91.52
71716;BME280;59568;52.128;5.434;2023-08-20T01:28:02;102242.28;;;17.27;91.26
71716;BME280;59568;52.128;5.434;2023-08-20T01:30:31;102243.34;;;17.26;91.64
71716;BME280;59568;52.128;5.434;2023-08-20T01:32:58;102233.09;;;17.25;91.74
71716;BME280;59568;52.128;5.434;2023-08-20T01:35:25;102244.16;;;17.27;91.99
71716;BME280;59568;52.128;5.434;2023-08-20T01:37:52;102247.28;;;17.29;92.20
71716;BME280;59568;52.128;5.434;2023-08-20T01:40:19;102244.66;;;17.29;92.28
71716;BME280;59568;52.128;5.434;2023-08-20T01:42:45;102245.13;;;17.31;92.23
71716;BME280;59568;52.128;5.434;2023-08-20T01:45:12;102246.47;;;17.28;91.80
71716;BME280;59568;52.128;5.434;2023-08-20T01:47:38;102247.28;;;17.29;92.22
71716;BME280;59568;52.128;5.434;2023-08-20T01:50:05;102244.16;;;17.27;91.79
71716;BME280;59568;52.128;5.434;2023-08-20T01:52:33;102239.16;;;17.25;91.43
71716;BME280;59568;52.128;5.434;2023-08-20T01:54:59;102244.25;;;17.22;91.37
71716;BME280;59568;52.128;5.434;2023-08-20T01:57:26;102251.19;;;17.17;91.28
71716;BME280;59568;52.128;5.434;2023-08-20T01:59:52;102252.09;;;17.13;91.59
71716;BME280;59568;52.128;5.434;2023-08-20T02:02:19;102256.13;;;17.10;91.74
71716;BME280;59568;52.128;5.434;2023-08-20T02:04:46;102255.91;;;17.07;91.92
71716;BME280;59568;52.128;5.434;2023-08-20T02:07:13;102253.00;;;17.08;91.75
71716;BME280;59568;52.128;5.434;2023-08-20T02:09:40;102254.06;;;17.07;92.74
71716;BME280;59568;52.128;5.434;2023-08-20T02:12:06;102265.69;;;17.06;92.16
71716;BME280;59568;52.128;5.434;2023-08-20T02:14:33;102254.81;;;17.08;92.63
71716;BME280;59568;52.128;5.434;2023-08-20T02:17:04;102260.09;;;17.08;92.78
71716;BME280;59568;52.128;5.434;2023-08-20T02:19:31;102259.34;;;17.07;92.49
71716;BME280;59568;52.128;5.434;2023-08-20T02:21:58;102248.84;;;17.02;92.27
71716;BME280;59568;52.128;5.434;2023-08-20T02:24:24;102249.94;;;17.01;92.30
71716;BME280;59568;52.128;5.434;2023-08-20T02:26:51;102248.19;;;16.96;92.05
71716;BME280;59568;52.128;5.434;2023-08-20T02:29:17;102248.00;;;16.93;92.31
71716;BME280;59568;52.128;5.434;2023-08-20T02:31:44;102243.00;;;16.91;92.24
71716;BME280;59568;52.128;5.434;2023-08-20T02:34:10;102229.91;;;16.86;91.95
71716;BME280;59568;52.128;5.434;2023-08-20T02:36:37;102233.91;;;16.84;91.65
71716;BME280;59568;52.128;5.434;2023-08-20T02:39:03;102229.19;;;16.81;91.75
71716;BME280;59568;52.128;5.434;2023-08-20T02:41:34;102224.78;;;16.76;92.01
71716;BME280;59568;52.128;5.434;2023-08-20T02:44:03;102228.78;;;16.73;91.69
71716;BME280;59568;52.128;5.434;2023-08-20T02:46:29;102209.63;;;16.68;92.22
71716;BME280;59568;52.128;5.434;2023-08-20T02:48:56;102213.63;;;16.65;92.06
71716;BME280;59568;52.128;5.434;2023-08-20T02:51:23;102222.94;;;16.63;92.20
71716;BME280;59568;52.128;5.434;2023-08-20T02:53:49;102217.44;;;16.59;92.13
71716;BME280;59568;52.128;5.434;2023-08-20T02:56:16;102219.09;;;16.55;92.23
71716;BME280;59568;52.128;5.434;2023-08-20T02:58:42;102211.47;;;16.53;91.92
71716;BME280;59568;52.128;5.434;2023-08-20T03:01:22;102212.06;;;16.50;92.08
71716;BME280;59568;52.128;5.434;2023-08-20T03:03:49;102219.78;;;16.47;92.35
71716;BME280;59568;52.128;5.434;2023-08-20T03:06:16;102223.97;;;16.48;92.10
71716;BME280;59568;52.128;5.434;2023-08-20T03:08:42;102229.06;;;16.44;92.08
71716;BME280;59568;52.128;5.434;2023-08-20T03:11:09;102225.72;;;16.38;92.50
71716;BME280;59568;52.128;5.434;2023-08-20T03:13:35;102225.22;;;16.36;92.84
71716;BME280;59568;52.128;5.434;2023-08-20T03:16:02;102226.28;;;16.35;92.40
71716;BME280;59568;52.128;5.434;2023-08-20T03:18:29;102214.97;;;16.35;92.21
71716;BME280;59568;52.128;5.434;2023-08-20T03:20:56;102229.53;;;16.32;92.33
71716;BME280;59568;52.128;5.434;2023-08-20T03:23:23;102229.53;;;16.32;92.59
71716;BME280;59568;52.128;5.434;2023-08-20T03:25:50;102226.41;;;16.30;92.57
71716;BME280;59568;52.128;5.434;2023-08-20T03:28:18;102222.78;;;16.26;92.49
71716;BME280;59568;52.128;5.434;2023-08-20T03:30:45;102228.63;;;16.23;92.73
71716;BME280;59568;52.128;5.434;2023-08-20T03:33:11;102232.13;;;16.18;92.60
71716;BME280;59568;52.128;5.434;2023-08-20T03:35:38;102228.22;;;16.16;92.70
71716;BME280;59568;52.128;5.434;2023-08-20T03:38:05;102238.84;;;16.11;92.69
71716;BME280;59568;52.128;5.434;2023-08-20T03:40:31;102235.22;;;16.07;92.69
71716;BME280;59568;52.128;5.434;2023-08-20T03:42:58;102249.16;;;16.07;92.81
71716;BME280;59568;52.128;5.434;2023-08-20T03:45:25;102247.34;;;16.08;92.98
71716;BME280;59568;52.128;5.434;2023-08-20T03:47:52;102251.81;;;16.07;92.91
71716;BME280;59568;52.128;5.434;2023-08-20T03:50:19;102246.53;;;16.07;93.20
71716;BME280;59568;52.128;5.434;2023-08-20T03:52:45;102243.13;;;16.07;92.90
71716;BME280;59568;52.128;5.434;2023-08-20T03:55:12;102250.53;;;16.05;93.33
71716;BME280;59568;52.128;5.434;2023-08-20T03:57:38;102262.16;;;16.04;93.72
71716;BME280;59568;52.128;5.434;2023-08-20T04:00:05;102265.88;;;16.03;93.89
71716;BME280;59568;52.128;5.434;2023-08-20T04:02:34;102257.47;;;16.01;93.71
71716;BME280;59568;52.128;5.434;2023-08-20T04:05:01;102266.91;;;16.02;93.88
71716;BME280;59568;52.128;5.434;2023-08-20T04:07:29;102263.78;;;16.00;93.38
71716;BME280;59568;52.128;5.434;2023-08-20T04:09:55;102266.41;;;16.00;93.20
71716;BME280;59568;52.128;5.434;2023-08-20T04:12:22;102269.88;;;16.00;92.72
71716;BME280;59568;52.128;5.434;2023-08-20T04:14:48;102273.28;;;16.01;92.72
71716;BME280;59568;52.128;5.434;2023-08-20T04:17:15;102273.84;;;15.97;92.75
71716;BME280;59568;52.128;5.434;2023-08-20T04:19:41;102275.78;;;15.92;92.70
71716;BME280;59568;52.128;5.434;2023-08-20T04:22:08;102281.84;;;15.92;92.80
71716;BME280;59568;52.128;5.434;2023-08-20T04:24:34;102280.25;;;15.91;93.12
71716;BME280;59568;52.128;5.434;2023-08-20T04:27:01;102285.84;;;15.90;92.91
71716;BME280;59568;52.128;5.434;2023-08-20T04:29:28;102284.75;;;15.91;92.82
71716;BME280;59568;52.128;5.434;2023-08-20T04:31:54;102284.75;;;15.91;92.73
71716;BME280;59568;52.128;5.434;2023-08-20T04:34:21;102286.38;;;15.87;92.82
71716;BME280;59568;52.128;5.434;2023-08-20T04:36:47;102289.03;;;15.87;92.99
71716;BME280;59568;52.128;5.434;2023-08-20T04:39:13;102289.81;;;15.87;93.02
71716;BME280;59568;52.128;5.434;2023-08-20T04:41:40;102295.06;;;15.87;93.35
71716;BME280;59568;52.128;5.434;2023-08-20T04:44:07;102286.38;;;15.87;93.25
71716;BME280;59568;52.128;5.434;2023-08-20T04:46:33;102292.16;;;15.89;93.27
71716;BME280;59568;52.128;5.434;2023-08-20T04:49:00;102297.16;;;15.90;93.04
71716;BME280;59568;52.128;5.434;2023-08-20T04:51:26;102298.72;;;15.91;93.01
71716;BME280;59568;52.128;5.434;2023-08-20T04:53:53;102294.75;;;15.94;92.82
71716;BME280;59568;52.128;5.434;2023-08-20T04:56:19;102295.50;;;15.94;93.30
71716;BME280;59568;52.128;5.434;2023-08-20T04:58:46;102301.56;;;15.95;93.64
71716;BME280;59568;52.128;5.434;2023-08-20T05:01:12;102302.34;;;15.95;93.34
71716;BME280;59568;52.128;5.434;2023-08-20T05:03:39;102304.97;;;15.95;93.03
71716;BME280;59568;52.128;5.434;2023-08-20T05:06:05;102303.69;;;15.93;93.48
71716;BME280;59568;52.128;5.434;2023-08-20T05:08:32;102309.75;;;15.93;92.97
71716;BME280;59568;52.128;5.434;2023-08-20T05:10:59;102313.69;;;15.96;93.21
71716;BME280;59568;52.128;5.434;2023-08-20T05:13:25;102312.88;;;15.95;93.13
71716;BME280;59568;52.128;5.434;2023-08-20T05:15:52;102313.69;;;15.96;92.87
71716;BME280;59568;52.128;5.434;2023-08-20T05:18:18;102318.66;;;15.97;92.73
71716;BME280;59568;52.128;5.434;2023-08-20T05:20:45;102317.31;;;16.00;92.71
71716;BME280;59568;52.128;5.434;2023-08-20T05:23:11;102311.25;;;16.00;92.67
71716;BME280;59568;52.128;5.434;2023-08-20T05:25:39;102313.88;;;16.00;92.65
71716;BME280;59568;52.128;5.434;2023-08-20T05:28:05;102319.38;;;16.03;92.73
71716;BME280;59568;52.128;5.434;2023-08-20T05:30:33;102313.31;;;16.03;92.50
71716;BME280;59568;52.128;5.434;2023-08-20T05:33:00;102315.97;;;16.03;92.58
71716;BME280;59568;52.128;5.434;2023-08-20T05:35:26;102323.31;;;16.06;92.75
71716;BME280;59568;52.128;5.434;2023-08-20T05:37:54;102320.59;;;16.11;92.92
71716;BME280;59568;52.128;5.434;2023-08-20T05:40:21;102320.81;;;16.14;92.48
71716;BME280;59568;52.128;5.434;2023-08-20T05:42:48;102319.44;;;16.17;92.89
71716;BME280;59568;52.128;5.434;2023-08-20T05:45:17;102321.56;;;16.15;93.35
71716;BME280;59568;52.128;5.434;2023-08-20T05:47:44;102321.41;;;16.25;93.60
71716;BME280;59568;52.128;5.434;2023-08-20T05:50:10;102322.50;;;16.57;92.94
71716;BME280;59568;52.128;5.434;2023-08-20T05:52:37;102317.06;;;16.67;93.22
71716;BME280;59568;52.128;5.434;2023-08-20T05:55:04;102318.03;;;16.71;92.79
71716;BME280;59568;52.128;5.434;2023-08-20T05:57:31;102317.16;;;16.76;93.13
71716;BME280;59568;52.128;5.434;2023-08-20T05:59:57;102319.69;;;16.86;93.19
71716;BME280;59568;52.128;5.434;2023-08-20T06:02:24;102315.19;;;17.01;93.95
71716;BME280;59568;52.128;5.434;2023-08-20T06:04:50;102308.63;;;17.12;93.59
71716;BME280;59568;52.128;5.434;2023-08-20T06:07:17;102310.41;;;17.16;92.61
71716;BME280;59568;52.128;5.434;2023-08-20T06:09:44;102308.75;;;17.21;92.97
71716;BME280;59568;52.128;5.434;2023-08-20T06:12:10;102302.06;;;17.23;92.55
71716;BME280;59568;52.128;5.434;2023-08-20T06:14:37;102313.81;;;17.31;92.58
71716;BME280;59568;52.128;5.434;2023-08-20T06:17:03;102309.38;;;17.40;92.60
71716;BME280;59568;52.128;5.434;2023-08-20T06:19:30;102305.19;;;17.53;91.89
71716;BME280;59568;52.128;5.434;2023-08-20T06:21:56;102311.81;;;17.64;92.19
71716;BME280;59568;52.128;5.434;2023-08-20T06:24:23;102307.69;;;17.72;92.72
71716;BME280;59568;52.128;5.434;2023-08-20T06:26:50;102316.47;;;17.81;92.53
71716;BME280;59568;52.128;5.434;2023-08-20T06:29:17;102310.69;;;17.93;92.49
71716;BME280;59568;52.128;5.434;2023-08-20T06:31:44;102309.06;;;18.06;91.97
71716;BME280;59568;52.128;5.434;2023-08-20T06:34:10;102309.94;;;18.15;92.48
71716;BME280;59568;52.128;5.434;2023-08-20T06:36:37;102316.53;;;18.26;92.25
71716;BME280;59568;52.128;5.434;2023-08-20T06:39:03;102308.81;;;18.39;92.05
71716;BME280;59568;52.128;5.434;2023-08-20T06:41:30;102318.56;;;18.52;91.36
71716;BME280;59568;52.128;5.434;2023-08-20T06:43:57;102315.06;;;18.65;91.13
71716;BME280;59568;52.128;5.434;2023-08-20T06:46:23;102324.28;;;18.76;90.85
71716;BME280;59568;52.128;5.434;2023-08-20T06:48:50;102322.34;;;18.91;90.78
71716;BME280;59568;52.128;5.434;2023-08-20T06:51:19;102318.06;;;19.04;90.28
71716;BME280;59568;52.128;5.434;2023-08-20T06:53:47;102325.72;;;19.14;90.21
71716;BME280;59568;52.128;5.434;2023-08-20T06:56:13;102324.03;;;19.27;90.61
71716;BME280;59568;52.128;5.434;2023-08-20T06:58:41;102324.38;;;19.43;90.59
71716;BME280;59568;52.128;5.434;2023-08-20T07:01:08;102320.03;;;19.55;89.81
71716;BME280;59568;52.128;5.434;2023-08-20T07:03:40;102318.03;;;19.70;89.46
71716;BME280;59568;52.128;5.434;2023-08-20T07:06:07;102322.25;;;19.80;88.85
71716;BME280;59568;52.128;5.434;2023-08-20T07:08:36;102316.16;;;19.88;88.35
71716;BME280;59568;52.128;5.434;2023-08-20T07:11:03;102320.25;;;20.03;87.95
71716;BME280;59568;52.128;5.434;2023-08-20T07:13:29;102307.25;;;20.19;88.04
71716;BME280;59568;52.128;5.434;2023-08-20T07:15:56;102317.53;;;20.38;87.62
71716;BME280;59568;52.128;5.434;2023-08-20T07:18:23;102319.69;;;20.53;86.82
71716;BME280;59568;52.128;5.434;2023-08-20T07:20:50;102323.41;;;20.69;86.67
71716;BME280;59568;52.128;5.434;2023-08-20T07:23:17;102323.97;;;20.84;86.30
71716;BME280;59568;52.128;5.434;2023-08-20T07:25:44;102330.16;;;20.97;85.85
71716;BME280;59568;52.128;5.434;2023-08-20T07:28:13;102331.06;;;21.09;85.13
71716;BME280;59568;52.128;5.434;2023-08-20T07:30:40;102334.63;;;21.13;84.78
71716;BME280;59568;52.128;5.434;2023-08-20T07:33:07;102343.78;;;21.25;85.16
71716;BME280;59568;52.128;5.434;2023-08-20T07:35:33;102342.75;;;21.38;84.43
71716;BME280;59568;52.128;5.434;2023-08-20T07:38:01;102342.41;;;21.48;84.26
71716;BME280;59568;52.128;5.434;2023-08-20T07:40:28;102340.28;;;21.63;84.22
71716;BME280;59568;52.128;5.434;2023-08-20T07:42:55;102334.69;;;21.77;83.51
71716;BME280;59568;52.128;5.434;2023-08-20T07:45:22;102337.56;;;21.92;82.64
71716;BME280;59568;52.128;5.434;2023-08-20T07:47:49;102339.22;;;21.97;82.29
71716;BME280;59568;52.128;5.434;2023-08-20T07:50:15;102342.97;;;22.17;82.42
71716;BME280;59568;52.128;5.434;2023-08-20T07:52:43;102342.69;;;22.31;82.07
71716;BME280;59568;52.128;5.434;2023-08-20T07:55:09;102348.41;;;22.42;80.67
71716;BME280;59568;52.128;5.434;2023-08-20T07:57:36;102343.63;;;22.47;79.80
71716;BME280;59568;52.128;5.434;2023-08-20T08:00:03;102351.19;;;22.58;79.97
71716;BME280;59568;52.128;5.434;2023-08-20T08:02:31;102350.22;;;22.74;79.81
71716;BME280;59568;52.128;5.434;2023-08-20T08:04:57;102351.91;;;22.91;78.28
71716;BME280;59568;52.128;5.434;2023-08-20T08:07:24;102347.38;;;23.04;79.88
71716;BME280;59568;52.128;5.434;2023-08-20T08:09:50;102354.03;;;23.23;78.58
71716;BME280;59568;52.128;5.434;2023-08-20T08:12:17;102360.44;;;23.34;75.37
71716;BME280;59568;52.128;5.434;2023-08-20T08:14:43;102354.13;;;23.39;76.59
71716;BME280;59568;52.128;5.434;2023-08-20T08:17:09;102362.44;;;23.49;77.21
71716;BME280;59568;52.128;5.434;2023-08-20T08:19:36;102367.06;;;23.65;75.43
71716;BME280;59568;52.128;5.434;2023-08-20T08:22:02;102359.19;;;23.68;74.62
71716;BME280;59568;52.128;5.434;2023-08-20T08:24:29;102366.16;;;23.73;75.09
71716;BME280;59568;52.128;5.434;2023-08-20T08:26:56;102366.91;;;23.86;74.38
71716;BME280;59568;52.128;5.434;2023-08-20T08:29:22;102367.75;;;24.02;75.14
71716;BME280;59568;52.128;5.434;2023-08-20T08:31:49;102375.81;;;24.18;73.87
71716;BME280;59568;52.128;5.434;2023-08-20T08:34:15;102375.72;;;24.30;72.78
71716;BME280;59568;52.128;5.434;2023-08-20T08:36:42;102376.13;;;24.45;74.01
71716;BME280;59568;52.128;5.434;2023-08-20T08:39:09;102375.03;;;24.62;73.49
71716;BME280;59568;52.128;5.434;2023-08-20T08:41:38;102377.38;;;24.79;73.74
71716;BME280;59568;52.128;5.434;2023-08-20T08:44:08;102379.34;;;24.98;71.64
71716;BME280;59568;52.128;5.434;2023-08-20T08:46:36;102372.16;;;25.02;70.37
71716;BME280;59568;52.128;5.434;2023-08-20T08:49:04;102379.50;;;25.05;72.05
71716;BME280;59568;52.128;5.434;2023-08-20T08:51:31;102377.75;;;25.13;71.91
71716;BME280;59568;52.128;5.434;2023-08-20T08:53:58;102380.41;;;25.29;71.80
71716;BME280;59568;52.128;5.434;2023-08-20T08:56:25;102380.69;;;25.40;67.87
71716;BME280;59568;52.128;5.434;2023-08-20T08:58:52;102384.88;;;25.41;69.14
71716;BME280;59568;52.128;5.434;2023-08-20T09:01:18;102380.81;;;25.47;65.34
71716;BME280;59568;52.128;5.434;2023-08-20T09:03:45;102380.34;;;25.61;68.62
71716;BME280;59568;52.128;5.434;2023-08-20T09:06:12;102377.88;;;25.71;67.93
71716;BME280;59568;52.128;5.434;2023-08-20T09:08:40;102381.03;;;25.77;66.80
71716;BME280;59568;52.128;5.434;2023-08-20T09:11:06;102383.28;;;25.75;65.47
71716;BME280;59568;52.128;5.434;2023-08-20T09:15:59;102384.44;;;25.94;64.65
71716;BME280;59568;52.128;5.434;2023-08-20T09:18:29;102378.81;;;25.99;63.72
71716;BME280;59568;52.128;5.434;2023-08-20T09:20:57;102374.44;;;26.10;62.98
71716;BME280;59568;52.128;5.434;2023-08-20T09:23:28;102376.53;;;26.20;64.40
71716;BME280;59568;52.128;5.434;2023-08-20T09:25:54;102377.38;;;26.24;66.20
71716;BME280;59568;52.128;5.434;2023-08-20T09:28:21;102381.41;;;26.38;62.17
71716;BME280;59568;52.128;5.434;2023-08-20T09:30:58;102381.13;;;26.43;62.85
71716;BME280;59568;52.128;5.434;2023-08-20T09:33:28;102376.44;;;26.59;62.33
71716;BME280;59568;52.128;5.434;2023-08-20T09:35:55;102383.63;;;26.78;63.31
71716;BME280;59568;52.128;5.434;2023-08-20T09:38:23;102379.22;;;26.89;62.86
71716;BME280;59568;52.128;5.434;2023-08-20T09:40:51;102383.91;;;26.96;61.81
71716;BME280;59568;52.128;5.434;2023-08-20T09:43:19;102385.47;;;26.97;59.38
71716;BME280;59568;52.128;5.434;2023-08-20T09:45:47;102384.03;;;27.03;61.98
71716;BME280;59568;52.128;5.434;2023-08-20T09:48:18;102386.56;;;27.19;62.10
71716;BME280;59568;52.128;5.434;2023-08-20T09:50:49;102381.94;;;27.20;60.32
71716;BME280;59568;52.128;5.434;2023-08-20T09:53:27;102383.22;;;27.26;61.44
71716;BME280;59568;52.128;5.434;2023-08-20T09:56:09;102384.09;;;27.34;61.06
71716;BME280;59568;52.128;5.434;2023-08-20T09:58:39;102388.06;;;27.43;61.05
71716;BME280;59568;52.128;5.434;2023-08-20T10:01:06;102391.03;;;27.38;58.34
71716;BME280;59568;52.128;5.434;2023-08-20T10:03:33;102389.97;;;27.43;61.05
71716;BME280;59568;52.128;5.434;2023-08-20T10:06:00;102386.19;;;27.47;60.35
71716;BME280;59568;52.128;5.434;2023-08-20T10:08:28;102384.84;;;27.64;61.06
71716;BME280;59568;52.128;5.434;2023-08-20T10:10:55;102384.19;;;27.75;59.68
71716;BME280;59568;52.128;5.434;2023-08-20T10:13:22;102398.03;;;27.77;57.87
71716;BME280;59568;52.128;5.434;2023-08-20T10:15:48;102390.03;;;27.80;58.00
71716;BME280;59568;52.128;5.434;2023-08-20T10:18:19;102392.69;;;27.80;58.49
71716;BME280;59568;52.128;5.434;2023-08-20T10:20:46;102395.16;;;27.93;60.91
71716;BME280;59568;52.128;5.434;2023-08-20T10:23:12;102393.47;;;28.11;58.51
71716;BME280;59568;52.128;5.434;2023-08-20T10:25:42;102395.41;;;28.14;56.13
71716;BME280;59568;52.128;5.434;2023-08-20T10:28:24;102394.75;;;28.28;57.12
71716;BME280;59568;52.128;5.434;2023-08-20T10:31:11;102395.66;;;28.43;58.25
71716;BME280;59568;52.128;5.434;2023-08-20T10:36:19;102389.59;;;28.49;55.17
71716;BME280;59568;52.128;5.434;2023-08-20T10:38:51;102393.06;;;28.50;55.50
71716;BME280;59568;52.128;5.434;2023-08-20T10:41:25;102392.56;;;28.41;56.08
71716;BME280;59568;52.128;5.434;2023-08-20T10:43:52;102391.22;;;28.58;56.18
71716;BME280;59568;52.128;5.434;2023-08-20T10:46:21;102391.19;;;28.54;55.71
71716;BME280;59568;52.128;5.434;2023-08-20T10:49:06;102398.19;;;28.66;55.89
71716;BME280;59568;52.128;5.434;2023-08-20T10:51:35;102390.81;;;28.56;52.42
71716;BME280;59568;52.128;5.434;2023-08-20T10:56:44;102395.53;;;28.28;53.16
71716;BME280;59568;52.128;5.434;2023-08-20T10:59:39;102393.47;;;28.52;55.23
71716;BME280;59568;52.128;5.434;2023-08-20T11:02:11;102389.47;;;28.83;54.81
71716;BME280;59568;52.128;5.434;2023-08-20T11:04:41;102393.81;;;29.02;52.66
71716;BME280;59568;52.128;5.434;2023-08-20T11:07:07;102385.47;;;29.15;50.33
71716;BME280;59568;52.128;5.434;2023-08-20T11:09:34;102391.97;;;29.14;47.97
71716;BME280;59568;52.128;5.434;2023-08-20T11:12:01;102389.38;;;29.24;52.22
71716;BME280;59568;52.128;5.434;2023-08-20T11:14:28;102391.69;;;29.26;53.24
71716;BME280;59568;52.128;5.434;2023-08-20T11:16:54;102394.09;;;29.49;51.82
71716;BME280;59568;52.128;5.434;2023-08-20T11:19:22;102394.13;;;29.63;53.79
71716;BME280;59568;52.128;5.434;2023-08-20T11:21:50;102395.00;;;29.78;49.95
71716;BME280;59568;52.128;5.434;2023-08-20T11:24:17;102396.94;;;29.89;49.26
71716;BME280;59568;52.128;5.434;2023-08-20T11:26:44;102390.97;;;29.40;48.28
71716;BME280;59568;52.128;5.434;2023-08-20T11:29:13;102397.94;;;28.82;53.49
71716;BME280;59568;52.128;5.434;2023-08-20T11:31:40;102393.31;;;28.82;52.58
71716;BME280;59568;52.128;5.434;2023-08-20T11:34:07;102388.25;;;28.74;51.35
71716;BME280;59568;52.128;5.434;2023-08-20T11:36:34;102381.44;;;28.91;50.01
71716;BME280;59568;52.128;5.434;2023-08-20T11:39:01;102377.38;;;29.15;51.78
71716;BME280;59568;52.128;5.434;2023-08-20T11:41:28;102381.97;;;29.11;48.00
71716;BME280;59568;52.128;5.434;2023-08-20T11:43:55;102379.34;;;29.21;51.59
71716;BME280;59568;52.128;5.434;2023-08-20T11:46:23;102378.72;;;28.87;50.46
71716;BME280;59568;52.128;5.434;2023-08-20T11:49:02;102378.22;;;28.67;47.21
71716;BME280;59568;52.128;5.434;2023-08-20T11:51:39;102377.38;;;28.59;49.31
71716;BME280;59568;52.128;5.434;2023-08-20T11:54:17;102369.41;;;28.70;50.21
71716;BME280;59568;52.128;5.434;2023-08-20T11:59:12;102373.50;;;28.12;46.81
71716;BME280;59568;52.128;5.434;2023-08-20T12:01:39;102371.69;;;28.27;47.94
71716;BME280;59568;52.128;5.434;2023-08-20T12:04:07;102358.75;;;27.95;50.31
71716;BME280;59568;52.128;5.434;2023-08-20T12:06:36;102360.00;;;27.71;50.74
71716;BME280;59568;52.128;5.434;2023-08-20T12:09:21;102356.94;;;27.39;49.11
71716;BME280;59568;52.128;5.434;2023-08-20T12:11:52;102350.94;;;27.22;52.20
71716;BME280;59568;52.128;5.434;2023-08-20T12:14:19;102353.59;;;27.22;53.71
71716;BME280;59568;52.128;5.434;2023-08-20T12:16:46;102350.13;;;27.48;54.99
71716;BME280;59568;52.128;5.434;2023-08-20T12:19:13;102356.78;;;27.58;50.37
71716;BME280;59568;52.128;5.434;2023-08-20T12:21:40;102355.25;;;27.27;49.51
71716;BME280;59568;52.128;5.434;2023-08-20T12:24:08;102367.94;;;27.03;53.44
71716;BME280;59568;52.128;5.434;2023-08-20T12:26:39;102367.00;;;26.92;53.31
71716;BME280;59568;52.128;5.434;2023-08-20T12:29:06;102368.81;;;27.11;53.97
71716;BME280;59568;52.128;5.434;2023-08-20T12:31:33;102361.59;;;26.88;51.68
71716;BME280;59568;52.128;5.434;2023-08-20T12:34:00;102367.50;;;26.75;53.41
71716;BME280;59568;52.128;5.434;2023-08-20T12:36:28;102371.78;;;27.06;52.78
71716;BME280;59568;52.128;5.434;2023-08-20T12:38:55;102369.53;;;27.08;52.89
71716;BME280;59568;52.128;5.434;2023-08-20T12:41:22;102379.06;;;27.32;54.98
71716;BME280;59568;52.128;5.434;2023-08-20T12:43:48;102378.13;;;27.47;53.47
71716;BME280;59568;52.128;5.434;2023-08-20T12:46:16;102382.91;;;27.31;54.58
71716;BME280;59568;52.128;5.434;2023-08-20T12:48:43;102383.41;;;27.14;53.93
71716;BME280;59568;52.128;5.434;2023-08-20T12:51:09;102381.88;;;27.13;57.84
71716;BME280;59568;52.128;5.434;2023-08-20T12:53:39;102378.50;;;27.46;53.92
71716;BME280;59568;52.128;5.434;2023-08-20T12:56:06;102375.09;;;27.49;54.57
71716;BME280;59568;52.128;5.434;2023-08-20T12:58:32;102379.19;;;27.39;56.46
71716;BME280;59568;52.128;5.434;2023-08-20T13:00:59;102382.00;;;27.84;52.21
71716;BME280;59568;52.128;5.434;2023-08-20T13:03:26;102376.38;;;28.34;54.49
71716;BME280;59568;52.128;5.434;2023-08-20T13:05:54;102376.66;;;28.62;51.87
71716;BME280;59568;52.128;5.434;2023-08-20T13:08:24;102378.44;;;28.47;55.07
71716;BME280;59568;52.128;5.434;2023-08-20T13:10:54;102367.94;;;28.80;52.25